BGBWCYYR

Guest
Details From BGBW - Narsarsuaq
To CYYR - Goose Bay
Flight Number -
Tags Generated
Created
Modified
Stats Distance 674 nm / 1,248 km
Max Altitude 0 ft / 0 m
Waypoints 3
Social Downloads 2
Likes 0
Share VATSIM

Download

Looking for another format? Having issues loading an existing format? Contact us
Advertisement - Login to hide

Notes

Generated

Route

BGBW YYR05 CYYR

ID Type Via Altitude Latitude Longitude Leg Dist Tot Dist Heading (true) Name
O BGBW APT - 0 ft / 0 m 61.15435˚ -45.43692˚ - 0 nm - -
YYR05 FIX - 0 ft / 0 m 53.43184˚ -60.24084˚ 664 nm 664 nm 232° / 220° -
O CYYR APT - 0 ft / 0 m 53.33389˚ -60.43639˚ 9 nm 674 nm 230° / 230° -

Altitude Profile

Advertisement - Login to hide

Weather


0- 5 10 15 20 25 30 35+ Temperature / ° C

Clouds and Precipitation
Forecast for 2018-05-21 00:00 UTC. Updated 3 hours ago

Ground ~20,000 ft ~40,000 ft Winds

BGBW

Details ICAO BGBW (UAK)
Name Narsarsuaq
Region Greenland
Timezone America/Godthab (UTC-2.0)
Stats Elevation 112 ft / 34 m (AMSL)
Location 61.160516° -45.425976°
Runways 1
Magnetic Variation 22.776° W

METAR

BGBW 210150Z 22005KT 9999 FEW030 SCT040 BKN055 01/M05 Q0999

Decode

TAF

Not found

Departure Runways

ID Width Length Bearing (true) Bearing (mag) Surface Threshold Offset Overrun Length
07 148 ft / 45 m 5,921 ft / 1,805 m 40.57° 63.35° Concrete 0 ft / 0 m 0 ft / 0 m
25 148 ft / 45 m 5,921 ft / 1,805 m 220.58° 243.36° Concrete 0 ft / 0 m 279 ft / 85 m

CYYR

Details ICAO CYYR (YYR)
Name Goose Bay
Region Canada
Timezone America/Goose_Bay (UTC-3.0)
Stats Elevation 160 ft / 49 m (AMSL)
Location 53.318820° -60.423890°
Runways 2
Magnetic Variation 20.870° W

METAR

CYYR 210200Z 31004KT 15SM SCT022 BKN069 BKN120 00/M03 A2960 RMK SC3AC2AC1 SLP027

Decode

TAF

TAF CYYR 202330Z 2100/2124 32015G30KT P6SM SCT012 BKN030 TEMPO 2100/2103 5SM -SHSN OVC012 BECMG 2100/2102 30015KT FM210300 30010KT P6SM BKN030 TEMPO 2103/2106 5SM -SHSN OVC020 FM210600 VRB03KT P6SM BKN030 TEMPO 2106/2112 BKN020 FM211500 09006KT 5SM -SHRASN BR OVC020 FM212200 06008KT 3SM -SN OVC010 RMK NXT FCST BY 210600Z

Decode

Destination Runways

ID Width Length Bearing (true) Bearing (mag) Surface Threshold Offset Overrun Length
08 209 ft / 64 m 11,055 ft / 3,369 m 54.70° 75.57° Asphalt 0 ft / 0 m 1,000 ft / 305 m
16 200 ft / 61 m 9,515 ft / 2,900 m 132.96° 153.83° Asphalt 0 ft / 0 m 0 ft / 0 m
26 209 ft / 64 m 11,055 ft / 3,369 m 234.73° 255.60° Asphalt 0 ft / 0 m 1,000 ft / 305 m
34 200 ft / 61 m 9,515 ft / 2,900 m 312.99° 333.86° Asphalt 0 ft / 0 m 500 ft / 152 m

Popular Alternatives